sensor_id;sensor_type;location;lat;lon;timestamp;temperature;humidity
25622;DHT22;13487;39.360;22.962;2022-11-20T00:01:41;21.30;99.90
25622;DHT22;13487;39.360;22.962;2022-11-20T00:04:09;21.30;99.90
25622;DHT22;13487;39.360;22.962;2022-11-20T00:06:35;21.30;99.90
25622;DHT22;13487;39.360;22.962;2022-11-20T00:09:01;21.30;99.90
25622;DHT22;13487;39.360;22.962;2022-11-20T00:11:29;21.30;99.90
25622;DHT22;13487;39.360;22.962;2022-11-20T00:13:57;21.30;99.90
25622;DHT22;13487;39.360;22.962;2022-11-20T00:16:25;21.30;99.90
25622;DHT22;13487;39.360;22.962;2022-11-20T00:18:51;21.20;99.90
25622;DHT22;13487;39.360;22.962;2022-11-20T00:21:22;21.20;99.90
25622;DHT22;13487;39.360;22.962;2022-11-20T00:23:49;21.20;99.90
25622;DHT22;13487;39.360;22.962;2022-11-20T00:26:17;21.20;99.90
25622;DHT22;13487;39.360;22.962;2022-11-20T00:28:44;21.10;99.90
25622;DHT22;13487;39.360;22.962;2022-11-20T00:31:15;21.20;99.90
25622;DHT22;13487;39.360;22.962;2022-11-20T00:33:42;21.20;99.90
25622;DHT22;13487;39.360;22.962;2022-11-20T00:36:12;21.20;99.90
25622;DHT22;13487;39.360;22.962;2022-11-20T00:38:38;21.10;99.90
25622;DHT22;13487;39.360;22.962;2022-11-20T00:41:07;21.10;99.90
25622;DHT22;13487;39.360;22.962;2022-11-20T00:43:33;21.10;99.90
25622;DHT22;13487;39.360;22.962;2022-11-20T00:46:00;21.00;99.90
25622;DHT22;13487;39.360;22.962;2022-11-20T00:48:26;21.00;99.90
25622;DHT22;13487;39.360;22.962;2022-11-20T00:50:52;21.00;99.90
25622;DHT22;13487;39.360;22.962;2022-11-20T00:53:18;21.00;99.90
25622;DHT22;13487;39.360;22.962;2022-11-20T00:55:53;21.00;99.90
25622;DHT22;13487;39.360;22.962;2022-11-20T00:58:20;20.90;99.90
25622;DHT22;13487;39.360;22.962;2022-11-20T01:00:46;20.90;99.90
25622;DHT22;13487;39.360;22.962;2022-11-20T01:03:12;20.90;99.90
25622;DHT22;13487;39.360;22.962;2022-11-20T01:05:37;20.90;99.90
25622;DHT22;13487;39.360;22.962;2022-11-20T01:08:03;20.90;99.90
25622;DHT22;13487;39.360;22.962;2022-11-20T01:10:29;20.90;99.90
25622;DHT22;13487;39.360;22.962;2022-11-20T01:12:55;20.80;99.90
25622;DHT22;13487;39.360;22.962;2022-11-20T01:15:39;20.80;99.90
25622;DHT22;13487;39.360;22.962;2022-11-20T01:18:05;20.70;99.90
25622;DHT22;13487;39.360;22.962;2022-11-20T01:20:35;20.80;99.90
25622;DHT22;13487;39.360;22.962;2022-11-20T01:23:02;20.80;99.90
25622;DHT22;13487;39.360;22.962;2022-11-20T01:25:28;20.80;99.90
25622;DHT22;13487;39.360;22.962;2022-11-20T01:27:53;20.80;99.90
25622;DHT22;13487;39.360;22.962;2022-11-20T01:30:19;20.80;99.90
25622;DHT22;13487;39.360;22.962;2022-11-20T01:32:45;20.80;99.90
25622;DHT22;13487;39.360;22.962;2022-11-20T01:35:11;20.70;99.90
25622;DHT22;13487;39.360;22.962;2022-11-20T01:37:36;20.60;99.90
25622;DHT22;13487;39.360;22.962;2022-11-20T01:40:02;20.70;99.90
25622;DHT22;13487;39.360;22.962;2022-11-20T01:42:28;20.60;99.90
25622;DHT22;13487;39.360;22.962;2022-11-20T01:48:35;20.60;99.90
25622;DHT22;13487;39.360;22.962;2022-11-20T01:51:03;20.60;99.90
25622;DHT22;13487;39.360;22.962;2022-11-20T01:53:33;20.50;99.90
25622;DHT22;13487;39.360;22.962;2022-11-20T01:56:01;20.50;99.90
25622;DHT22;13487;39.360;22.962;2022-11-20T01:58:33;20.50;99.90
25622;DHT22;13487;39.360;22.962;2022-11-20T02:01:01;20.50;99.90
25622;DHT22;13487;39.360;22.962;2022-11-20T02:03:28;20.40;99.90
25622;DHT22;13487;39.360;22.962;2022-11-20T02:08:38;20.40;99.90
25622;DHT22;13487;39.360;22.962;2022-11-20T02:11:04;20.30;99.90
25622;DHT22;13487;39.360;22.962;2022-11-20T02:13:30;20.30;99.90
25622;DHT22;13487;39.360;22.962;2022-11-20T02:18:43;20.40;99.90
25622;DHT22;13487;39.360;22.962;2022-11-20T02:21:18;20.40;99.90
25622;DHT22;13487;39.360;22.962;2022-11-20T02:26:24;20.40;99.90
25622;DHT22;13487;39.360;22.962;2022-11-20T02:28:51;20.40;99.90
25622;DHT22;13487;39.360;22.962;2022-11-20T02:31:17;20.40;99.90
25622;DHT22;13487;39.360;22.962;2022-11-20T02:33:43;20.40;99.90
25622;DHT22;13487;39.360;22.962;2022-11-20T02:36:12;20.40;99.90
25622;DHT22;13487;39.360;22.962;2022-11-20T02:38:39;20.30;99.90
25622;DHT22;13487;39.360;22.962;2022-11-20T02:41:05;20.30;99.90
25622;DHT22;13487;39.360;22.962;2022-11-20T02:43:31;20.30;99.90
25622;DHT22;13487;39.360;22.962;2022-11-20T02:45:57;20.30;99.90
25622;DHT22;13487;39.360;22.962;2022-11-20T02:48:22;20.30;99.90
25622;DHT22;13487;39.360;22.962;2022-11-20T02:50:48;20.30;99.90
25622;DHT22;13487;39.360;22.962;2022-11-20T02:53:14;20.40;99.90
25622;DHT22;13487;39.360;22.962;2022-11-20T02:55:40;20.30;99.90
25622;DHT22;13487;39.360;22.962;2022-11-20T02:58:05;20.30;99.90
25622;DHT22;13487;39.360;22.962;2022-11-20T03:00:31;20.30;99.90
25622;DHT22;13487;39.360;22.962;2022-11-20T03:02:57;20.30;99.90
25622;DHT22;13487;39.360;22.962;2022-11-20T03:05:23;20.30;99.90
25622;DHT22;13487;39.360;22.962;2022-11-20T03:07:49;20.30;99.90
25622;DHT22;13487;39.360;22.962;2022-11-20T03:10:14;20.30;99.90
25622;DHT22;13487;39.360;22.962;2022-11-20T03:12:40;20.30;99.90
25622;DHT22;13487;39.360;22.962;2022-11-20T03:15:06;20.40;99.90
25622;DHT22;13487;39.360;22.962;2022-11-20T03:17:32;20.40;99.90
25622;DHT22;13487;39.360;22.962;2022-11-20T03:19:58;20.30;99.90
25622;DHT22;13487;39.360;22.962;2022-11-20T03:22:23;20.30;99.90
25622;DHT22;13487;39.360;22.962;2022-11-20T03:24:49;20.30;99.90
25622;DHT22;13487;39.360;22.962;2022-11-20T03:27:15;20.30;99.90
25622;DHT22;13487;39.360;22.962;2022-11-20T03:29:41;20.30;99.90
25622;DHT22;13487;39.360;22.962;2022-11-20T03:32:06;20.30;99.90
25622;DHT22;13487;39.360;22.962;2022-11-20T03:34:32;20.20;99.90
25622;DHT22;13487;39.360;22.962;2022-11-20T03:36:58;20.20;99.90
25622;DHT22;13487;39.360;22.962;2022-11-20T03:39:24;20.20;99.90
25622;DHT22;13487;39.360;22.962;2022-11-20T03:41:50;20.30;99.90
25622;DHT22;13487;39.360;22.962;2022-11-20T03:44:15;20.40;99.90
25622;DHT22;13487;39.360;22.962;2022-11-20T03:46:41;20.30;99.90
25622;DHT22;13487;39.360;22.962;2022-11-20T03:49:07;20.30;99.90
25622;DHT22;13487;39.360;22.962;2022-11-20T03:51:35;20.30;99.90
25622;DHT22;13487;39.360;22.962;2022-11-20T03:54:04;20.30;99.90
25622;DHT22;13487;39.360;22.962;2022-11-20T03:56:32;20.30;99.90
25622;DHT22;13487;39.360;22.962;2022-11-20T03:58:58;20.40;99.90
25622;DHT22;13487;39.360;22.962;2022-11-20T04:01:26;20.30;99.90
25622;DHT22;13487;39.360;22.962;2022-11-20T04:03:54;20.30;99.90
25622;DHT22;13487;39.360;22.962;2022-11-20T04:06:23;20.30;99.90
25622;DHT22;13487;39.360;22.962;2022-11-20T04:08:49;20.30;99.90
25622;DHT22;13487;39.360;22.962;2022-11-20T04:11:29;20.20;99.90
25622;DHT22;13487;39.360;22.962;2022-11-20T04:13:57;20.30;99.90
25622;DHT22;13487;39.360;22.962;2022-11-20T04:16:24;20.30;99.90
25622;DHT22;13487;39.360;22.962;2022-11-20T04:18:54;20.40;99.90
25622;DHT22;13487;39.360;22.962;2022-11-20T04:21:21;20.30;99.90
25622;DHT22;13487;39.360;22.962;2022-11-20T04:23:47;20.30;99.90
25622;DHT22;13487;39.360;22.962;2022-11-20T04:26:13;20.40;99.90
25622;DHT22;13487;39.360;22.962;2022-11-20T04:28:39;20.30;99.90
25622;DHT22;13487;39.360;22.962;2022-11-20T04:31:10;20.40;99.90
25622;DHT22;13487;39.360;22.962;2022-11-20T04:33:37;20.40;99.90
25622;DHT22;13487;39.360;22.962;2022-11-20T04:36:05;20.30;99.90
25622;DHT22;13487;39.360;22.962;2022-11-20T04:38:31;20.30;99.90
25622;DHT22;13487;39.360;22.962;2022-11-20T04:41:02;20.30;99.90
25622;DHT22;13487;39.360;22.962;2022-11-20T04:43:28;20.40;99.90
25622;DHT22;13487;39.360;22.962;2022-11-20T04:45:55;20.40;99.90
25622;DHT22;13487;39.360;22.962;2022-11-20T04:48:22;20.50;99.90
25622;DHT22;13487;39.360;22.962;2022-11-20T04:50:48;20.50;99.90
25622;DHT22;13487;39.360;22.962;2022-11-20T04:53:14;20.60;99.90
25622;DHT22;13487;39.360;22.962;2022-11-20T04:55:40;20.50;99.90
25622;DHT22;13487;39.360;22.962;2022-11-20T04:58:06;20.50;99.90
25622;DHT22;13487;39.360;22.962;2022-11-20T05:00:32;20.50;99.90
25622;DHT22;13487;39.360;22.962;2022-11-20T05:02:58;20.40;99.90
25622;DHT22;13487;39.360;22.962;2022-11-20T05:05:24;20.20;99.90
25622;DHT22;13487;39.360;22.962;2022-11-20T05:07:49;20.20;99.90
25622;DHT22;13487;39.360;22.962;2022-11-20T05:10:15;20.10;99.90
25622;DHT22;13487;39.360;22.962;2022-11-20T05:12:41;20.10;99.90
25622;DHT22;13487;39.360;22.962;2022-11-20T05:15:07;20.10;99.90
25622;DHT22;13487;39.360;22.962;2022-11-20T05:17:33;20.20;99.90
25622;DHT22;13487;39.360;22.962;2022-11-20T05:19:59;20.20;99.90
25622;DHT22;13487;39.360;22.962;2022-11-20T05:22:25;20.40;99.90
25622;DHT22;13487;39.360;22.962;2022-11-20T05:24:50;20.30;99.90
25622;DHT22;13487;39.360;22.962;2022-11-20T05:27:16;20.30;99.90
25622;DHT22;13487;39.360;22.962;2022-11-20T05:29:42;20.30;99.90
25622;DHT22;13487;39.360;22.962;2022-11-20T05:32:07;20.30;99.90
25622;DHT22;13487;39.360;22.962;2022-11-20T05:34:35;20.30;99.90
25622;DHT22;13487;39.360;22.962;2022-11-20T05:37:03;20.40;99.90
25622;DHT22;13487;39.360;22.962;2022-11-20T05:39:28;20.50;99.90
25622;DHT22;13487;39.360;22.962;2022-11-20T05:41:54;20.40;99.90
25622;DHT22;13487;39.360;22.962;2022-11-20T05:44:39;20.60;99.90
25622;DHT22;13487;39.360;22.962;2022-11-20T05:47:05;20.70;99.90
25622;DHT22;13487;39.360;22.962;2022-11-20T05:49:31;20.60;99.90
25622;DHT22;13487;39.360;22.962;2022-11-20T05:51:57;20.60;99.90
25622;DHT22;13487;39.360;22.962;2022-11-20T05:54:22;20.60;99.90
25622;DHT22;13487;39.360;22.962;2022-11-20T05:56:48;20.50;99.90
25622;DHT22;13487;39.360;22.962;2022-11-20T05:59:14;20.50;99.90
25622;DHT22;13487;39.360;22.962;2022-11-20T06:01:39;20.60;99.90
25622;DHT22;13487;39.360;22.962;2022-11-20T06:04:05;20.60;99.90
25622;DHT22;13487;39.360;22.962;2022-11-20T06:06:31;20.70;99.90
25622;DHT22;13487;39.360;22.962;2022-11-20T06:08:57;20.70;99.90
25622;DHT22;13487;39.360;22.962;2022-11-20T06:11:24;20.80;99.90
25622;DHT22;13487;39.360;22.962;2022-11-20T06:13:50;20.80;99.90
25622;DHT22;13487;39.360;22.962;2022-11-20T06:16:18;20.80;99.90
25622;DHT22;13487;39.360;22.962;2022-11-20T06:18:45;20.80;99.90
25622;DHT22;13487;39.360;22.962;2022-11-20T06:21:14;20.80;99.90
25622;DHT22;13487;39.360;22.962;2022-11-20T06:23:40;20.90;99.90
25622;DHT22;13487;39.360;22.962;2022-11-20T06:26:08;20.90;99.90
25622;DHT22;13487;39.360;22.962;2022-11-20T06:28:35;21.00;99.90
25622;DHT22;13487;39.360;22.962;2022-11-20T06:31:01;21.00;99.90
25622;DHT22;13487;39.360;22.962;2022-11-20T06:33:27;21.00;99.90
25622;DHT22;13487;39.360;22.962;2022-11-20T06:35:56;21.10;99.90
25622;DHT22;13487;39.360;22.962;2022-11-20T06:38:23;21.00;99.90
25622;DHT22;13487;39.360;22.962;2022-11-20T06:40:48;21.00;99.90
25622;DHT22;13487;39.360;22.962;2022-11-20T06:43:14;21.00;99.90
25622;DHT22;13487;39.360;22.962;2022-11-20T06:45:40;21.10;99.90
25622;DHT22;13487;39.360;22.962;2022-11-20T06:48:06;21.00;99.90
25622;DHT22;13487;39.360;22.962;2022-11-20T06:50:32;21.10;99.90
25622;DHT22;13487;39.360;22.962;2022-11-20T06:53:01;21.00;99.90
25622;DHT22;13487;39.360;22.962;2022-11-20T06:55:26;21.00;99.90
25622;DHT22;13487;39.360;22.962;2022-11-20T06:57:52;21.10;99.90
25622;DHT22;13487;39.360;22.962;2022-11-20T07:00:18;21.10;99.90
25622;DHT22;13487;39.360;22.962;2022-11-20T07:02:44;21.10;99.90
25622;DHT22;13487;39.360;22.962;2022-11-20T07:05:09;21.20;99.90
25622;DHT22;13487;39.360;22.962;2022-11-20T07:07:35;21.20;99.90
25622;DHT22;13487;39.360;22.962;2022-11-20T07:10:01;21.20;99.90
25622;DHT22;13487;39.360;22.962;2022-11-20T07:12:26;21.20;99.90
25622;DHT22;13487;39.360;22.962;2022-11-20T07:14:52;21.30;99.90
25622;DHT22;13487;39.360;22.962;2022-11-20T07:17:18;21.40;99.90
25622;DHT22;13487;39.360;22.962;2022-11-20T07:19:44;21.40;99.90
25622;DHT22;13487;39.360;22.962;2022-11-20T07:22:10;21.40;99.90
25622;DHT22;13487;39.360;22.962;2022-11-20T07:24:35;21.40;99.90
25622;DHT22;13487;39.360;22.962;2022-11-20T07:27:01;21.50;99.90
25622;DHT22;13487;39.360;22.962;2022-11-20T07:29:27;21.50;99.90
25622;DHT22;13487;39.360;22.962;2022-11-20T07:31:52;21.50;99.90
25622;DHT22;13487;39.360;22.962;2022-11-20T07:34:18;21.50;99.90
25622;DHT22;13487;39.360;22.962;2022-11-20T07:36:45;21.60;99.90
25622;DHT22;13487;39.360;22.962;2022-11-20T07:39:11;21.60;99.90
25622;DHT22;13487;39.360;22.962;2022-11-20T07:41:36;21.80;99.90
25622;DHT22;13487;39.360;22.962;2022-11-20T07:44:02;21.90;99.90
25622;DHT22;13487;39.360;22.962;2022-11-20T07:46:28;22.00;99.90
25622;DHT22;13487;39.360;22.962;2022-11-20T07:48:54;22.10;99.90
25622;DHT22;13487;39.360;22.962;2022-11-20T07:51:19;22.00;99.90
25622;DHT22;13487;39.360;22.962;2022-11-20T07:53:45;21.90;99.90
25622;DHT22;13487;39.360;22.962;2022-11-20T07:56:11;21.90;99.90
25622;DHT22;13487;39.360;22.962;2022-11-20T07:58:36;21.80;99.90
25622;DHT22;13487;39.360;22.962;2022-11-20T08:01:06;21.80;99.90
25622;DHT22;13487;39.360;22.962;2022-11-20T08:03:32;21.70;99.90
25622;DHT22;13487;39.360;22.962;2022-11-20T08:05:59;21.70;99.90
25622;DHT22;13487;39.360;22.962;2022-11-20T08:08:26;21.60;99.90
25622;DHT22;13487;39.360;22.962;2022-11-20T08:10:52;21.70;99.90
25622;DHT22;13487;39.360;22.962;2022-11-20T08:13:17;21.70;99.90
25622;DHT22;13487;39.360;22.962;2022-11-20T08:16:02;21.70;99.90
25622;DHT22;13487;39.360;22.962;2022-11-20T08:18:27;21.70;99.90
25622;DHT22;13487;39.360;22.962;2022-11-20T08:20:53;21.80;99.90
25622;DHT22;13487;39.360;22.962;2022-11-20T08:23:19;21.80;99.90
25622;DHT22;13487;39.360;22.962;2022-11-20T08:25:49;21.90;99.90
25622;DHT22;13487;39.360;22.962;2022-11-20T08:28:15;21.90;99.90
25622;DHT22;13487;39.360;22.962;2022-11-20T08:30:41;21.90;99.90
25622;DHT22;13487;39.360;22.962;2022-11-20T08:33:08;21.90;99.90
25622;DHT22;13487;39.360;22.962;2022-11-20T08:35:39;21.80;99.90
25622;DHT22;13487;39.360;22.962;2022-11-20T08:38:06;21.80;99.90
25622;DHT22;13487;39.360;22.962;2022-11-20T08:40:33;21.80;99.90
25622;DHT22;13487;39.360;22.962;2022-11-20T08:42:59;21.70;99.90
25622;DHT22;13487;39.360;22.962;2022-11-20T08:45:24;21.70;99.90
25622;DHT22;13487;39.360;22.962;2022-11-20T08:47:50;21.70;99.90
25622;DHT22;13487;39.360;22.962;2022-11-20T08:50:16;21.90;99.90
25622;DHT22;13487;39.360;22.962;2022-11-20T08:52:43;22.00;99.90
25622;DHT22;13487;39.360;22.962;2022-11-20T08:55:09;22.00;99.90
25622;DHT22;13487;39.360;22.962;2022-11-20T08:57:36;22.10;99.90
25622;DHT22;13487;39.360;22.962;2022-11-20T09:00:04;21.90;99.90
25622;DHT22;13487;39.360;22.962;2022-11-20T09:02:30;21.80;99.90
25622;DHT22;13487;39.360;22.962;2022-11-20T09:04:58;21.80;99.90
25622;DHT22;13487;39.360;22.962;2022-11-20T09:07:23;22.00;99.90
25622;DHT22;13487;39.360;22.962;2022-11-20T09:09:49;22.00;99.90
25622;DHT22;13487;39.360;22.962;2022-11-20T09:12:15;22.00;99.90
25622;DHT22;13487;39.360;22.962;2022-11-20T09:14:41;22.00;99.90
25622;DHT22;13487;39.360;22.962;2022-11-20T09:17:06;22.10;99.90
25622;DHT22;13487;39.360;22.962;2022-11-20T09:19:33;22.10;99.90
25622;DHT22;13487;39.360;22.962;2022-11-20T09:21:59;22.20;99.90
25622;DHT22;13487;39.360;22.962;2022-11-20T09:24:26;22.10;99.90
25622;DHT22;13487;39.360;22.962;2022-11-20T09:26:52;22.10;99.90
25622;DHT22;13487;39.360;22.962;2022-11-20T09:29:18;22.00;99.90
25622;DHT22;13487;39.360;22.962;2022-11-20T09:31:43;22.00;99.90
25622;DHT22;13487;39.360;22.962;2022-11-20T09:34:09;22.00;99.90
25622;DHT22;13487;39.360;22.962;2022-11-20T09:36:35;22.00;99.90
25622;DHT22;13487;39.360;22.962;2022-11-20T09:39:01;22.20;99.90
25622;DHT22;13487;39.360;22.962;2022-11-20T09:41:39;22.30;99.90
25622;DHT22;13487;39.360;22.962;2022-11-20T09:47:24;22.80;99.90
25622;DHT22;13487;39.360;22.962;2022-11-20T09:55:28;23.30;99.90
25622;DHT22;13487;39.360;22.962;2022-11-20T09:57:54;23.30;99.90
25622;DHT22;13487;39.360;22.962;2022-11-20T10:00:21;23.10;99.90
25622;DHT22;13487;39.360;22.962;2022-11-20T10:03:14;23.10;99.90
25622;DHT22;13487;39.360;22.962;2022-11-20T10:05:51;23.40;99.90
25622;DHT22;13487;39.360;22.962;2022-11-20T10:08:22;23.60;99.90
25622;DHT22;13487;39.360;22.962;2022-11-20T10:16:37;23.80;99.90
25622;DHT22;13487;39.360;22.962;2022-11-20T10:30:16;23.40;99.90
25622;DHT22;13487;39.360;22.962;2022-11-20T10:32:47;23.30;99.90
25622;DHT22;13487;39.360;22.962;2022-11-20T10:37:43;23.50;99.90
25622;DHT22;13487;39.360;22.962;2022-11-20T10:48:31;23.60;99.90
25622;DHT22;13487;39.360;22.962;2022-11-20T10:51:18;23.80;99.90
25622;DHT22;13487;39.360;22.962;2022-11-20T10:53:56;23.70;99.90
25622;DHT22;13487;39.360;22.962;2022-11-20T11:01:51;23.50;99.90
25622;DHT22;13487;39.360;22.962;2022-11-20T11:04:36;23.20;99.90
25622;DHT22;13487;39.360;22.962;2022-11-20T11:09:48;22.80;99.90
25622;DHT22;13487;39.360;22.962;2022-11-20T11:12:14;22.70;99.90
25622;DHT22;13487;39.360;22.962;2022-11-20T11:14:48;23.10;99.90
25622;DHT22;13487;39.360;22.962;2022-11-20T11:17:27;23.10;99.90
25622;DHT22;13487;39.360;22.962;2022-11-20T11:19:58;23.20;99.90
25622;DHT22;13487;39.360;22.962;2022-11-20T11:22:24;23.60;99.90
25622;DHT22;13487;39.360;22.962;2022-11-20T11:24:53;23.90;99.90
25622;DHT22;13487;39.360;22.962;2022-11-20T11:27:19;23.80;99.90
25622;DHT22;13487;39.360;22.962;2022-11-20T11:29:46;23.90;99.90
25622;DHT22;13487;39.360;22.962;2022-11-20T11:32:20;23.90;99.90
25622;DHT22;13487;39.360;22.962;2022-11-20T11:35:04;23.70;99.90
25622;DHT22;13487;39.360;22.962;2022-11-20T11:37:37;23.80;99.90
25622;DHT22;13487;39.360;22.962;2022-11-20T11:40:04;24.00;99.90
25622;DHT22;13487;39.360;22.962;2022-11-20T11:42:31;23.90;99.90
25622;DHT22;13487;39.360;22.962;2022-11-20T11:44:59;23.90;99.90
25622;DHT22;13487;39.360;22.962;2022-11-20T11:58:50;23.20;99.90
25622;DHT22;13487;39.360;22.962;2022-11-20T12:03:58;22.80;99.90
25622;DHT22;13487;39.360;22.962;2022-11-20T12:06:27;22.80;99.90
25622;DHT22;13487;39.360;22.962;2022-11-20T12:09:02;22.70;99.90
25622;DHT22;13487;39.360;22.962;2022-11-20T12:11:54;22.70;99.90
25622;DHT22;13487;39.360;22.962;2022-11-20T12:14:34;22.60;99.90
25622;DHT22;13487;39.360;22.962;2022-11-20T12:17:01;22.60;99.90
25622;DHT22;13487;39.360;22.962;2022-11-20T12:19:33;22.60;99.90
25622;DHT22;13487;39.360;22.962;2022-11-20T12:22:09;22.60;99.90
25622;DHT22;13487;39.360;22.962;2022-11-20T12:24:59;22.30;99.90
25622;DHT22;13487;39.360;22.962;2022-11-20T12:31:18;20.50;99.90
25622;DHT22;13487;39.360;22.962;2022-11-20T12:33:57;19.90;99.90
25622;DHT22;13487;39.360;22.962;2022-11-20T12:39:25;19.20;99.90
25622;DHT22;13487;39.360;22.962;2022-11-20T12:42:05;18.80;99.90
25622;DHT22;13487;39.360;22.962;2022-11-20T12:45:17;18.50;99.90
25622;DHT22;13487;39.360;22.962;2022-11-20T12:53:36;18.40;99.90
25622;DHT22;13487;39.360;22.962;2022-11-20T13:01:40;18.30;99.90
25622;DHT22;13487;39.360;22.962;2022-11-20T13:07:09;18.30;99.90
25622;DHT22;13487;39.360;22.962;2022-11-20T13:09:45;18.40;99.90
25622;DHT22;13487;39.360;22.962;2022-11-20T13:14:52;18.00;99.90
25622;DHT22;13487;39.360;22.962;2022-11-20T13:17:21;17.60;99.90
25622;DHT22;13487;39.360;22.962;2022-11-20T13:19:53;17.70;99.90
25622;DHT22;13487;39.360;22.962;2022-11-20T13:22:27;17.80;99.90
25622;DHT22;13487;39.360;22.962;2022-11-20T13:24:54;17.90;99.90
25622;DHT22;13487;39.360;22.962;2022-11-20T13:27:23;18.00;99.90
25622;DHT22;13487;39.360;22.962;2022-11-20T13:30:13;18.30;99.90
25622;DHT22;13487;39.360;22.962;2022-11-20T13:35:31;18.60;99.90
25622;DHT22;13487;39.360;22.962;2022-11-20T13:38:15;18.60;99.90
25622;DHT22;13487;39.360;22.962;2022-11-20T13:41:10;18.70;99.90
25622;DHT22;13487;39.360;22.962;2022-11-20T13:46:45;18.50;99.90
25622;DHT22;13487;39.360;22.962;2022-11-20T13:49:27;18.50;99.90
25622;DHT22;13487;39.360;22.962;2022-11-20T14:00:45;18.90;99.90
25622;DHT22;13487;39.360;22.962;2022-11-20T14:03:19;18.90;99.90
25622;DHT22;13487;39.360;22.962;2022-11-20T14:05:59;19.00;99.90
25622;DHT22;13487;39.360;22.962;2022-11-20T14:08:40;19.00;99.90
25622;DHT22;13487;39.360;22.962;2022-11-20T14:14:04;19.20;99.90
25622;DHT22;13487;39.360;22.962;2022-11-20T14:16:35;19.10;99.90
25622;DHT22;13487;39.360;22.962;2022-11-20T14:21:51;19.20;99.90
25622;DHT22;13487;39.360;22.962;2022-11-20T14:24:24;19.20;99.90
25622;DHT22;13487;39.360;22.962;2022-11-20T14:26:51;19.10;99.90
25622;DHT22;13487;39.360;22.962;2022-11-20T14:29:19;19.30;99.90
25622;DHT22;13487;39.360;22.962;2022-11-20T14:31:48;19.40;99.90
25622;DHT22;13487;39.360;22.962;2022-11-20T14:34:24;19.30;99.90
25622;DHT22;13487;39.360;22.962;2022-11-20T14:36:55;19.20;99.90
25622;DHT22;13487;39.360;22.962;2022-11-20T14:39:35;19.30;99.90
25622;DHT22;13487;39.360;22.962;2022-11-20T14:42:13;19.20;99.90
25622;DHT22;13487;39.360;22.962;2022-11-20T14:44:41;19.00;99.90
25622;DHT22;13487;39.360;22.962;2022-11-20T14:47:10;18.90;99.90
25622;DHT22;13487;39.360;22.962;2022-11-20T14:49:37;18.80;99.90
25622;DHT22;13487;39.360;22.962;2022-11-20T14:52:21;18.70;99.90
25622;DHT22;13487;39.360;22.962;2022-11-20T14:54:53;18.70;99.90
25622;DHT22;13487;39.360;22.962;2022-11-20T14:57:28;18.50;99.90
25622;DHT22;13487;39.360;22.962;2022-11-20T15:00:24;18.60;99.90
25622;DHT22;13487;39.360;22.962;2022-11-20T15:02:51;18.50;99.90
25622;DHT22;13487;39.360;22.962;2022-11-20T15:05:19;18.60;99.90
25622;DHT22;13487;39.360;22.962;2022-11-20T15:08:07;18.50;99.90
25622;DHT22;13487;39.360;22.962;2022-11-20T15:10:33;18.40;99.90
25622;DHT22;13487;39.360;22.962;2022-11-20T15:13:02;18.50;99.90
25622;DHT22;13487;39.360;22.962;2022-11-20T15:15:41;18.40;99.90
25622;DHT22;13487;39.360;22.962;2022-11-20T15:18:24;18.50;99.90
25622;DHT22;13487;39.360;22.962;2022-11-20T15:20:58;18.80;99.90
25622;DHT22;13487;39.360;22.962;2022-11-20T15:23:25;18.90;99.90
25622;DHT22;13487;39.360;22.962;2022-11-20T15:25:51;18.90;99.90
25622;DHT22;13487;39.360;22.962;2022-11-20T15:28:30;18.90;99.90
25622;DHT22;13487;39.360;22.962;2022-11-20T15:30:57;18.80;99.90
25622;DHT22;13487;39.360;22.962;2022-11-20T15:33:23;18.80;99.90
25622;DHT22;13487;39.360;22.962;2022-11-20T15:35:49;18.60;99.90
25622;DHT22;13487;39.360;22.962;2022-11-20T15:38:14;18.60;99.90
25622;DHT22;13487;39.360;22.962;2022-11-20T15:40:40;18.60;99.90
25622;DHT22;13487;39.360;22.962;2022-11-20T15:43:06;18.50;99.90
25622;DHT22;13487;39.360;22.962;2022-11-20T15:45:46;18.50;99.90
25622;DHT22;13487;39.360;22.962;2022-11-20T15:48:55;18.50;99.90
25622;DHT22;13487;39.360;22.962;2022-11-20T15:53:43;18.60;99.90
25622;DHT22;13487;39.360;22.962;2022-11-20T15:56:11;18.60;99.90
25622;DHT22;13487;39.360;22.962;2022-11-20T15:58:38;18.60;99.90
25622;DHT22;13487;39.360;22.962;2022-11-20T16:01:04;18.60;99.90
25622;DHT22;13487;39.360;22.962;2022-11-20T16:03:29;18.60;99.90
25622;DHT22;13487;39.360;22.962;2022-11-20T16:05:55;18.60;99.90
25622;DHT22;13487;39.360;22.962;2022-11-20T16:08:21;18.60;99.90
25622;DHT22;13487;39.360;22.962;2022-11-20T16:10:47;18.60;99.90
25622;DHT22;13487;39.360;22.962;2022-11-20T16:13:17;18.60;99.90
25622;DHT22;13487;39.360;22.962;2022-11-20T16:16:09;18.60;99.90
25622;DHT22;13487;39.360;22.962;2022-11-20T16:18:35;18.60;99.90
25622;DHT22;13487;39.360;22.962;2022-11-20T16:21:01;18.70;99.90
25622;DHT22;13487;39.360;22.962;2022-11-20T16:23:27;18.70;99.90
25622;DHT22;13487;39.360;22.962;2022-11-20T16:25:53;18.70;99.90
25622;DHT22;13487;39.360;22.962;2022-11-20T16:28:19;18.70;99.90
25622;DHT22;13487;39.360;22.962;2022-11-20T16:30:46;18.70;99.90
25622;DHT22;13487;39.360;22.962;2022-11-20T16:33:14;18.70;99.90
25622;DHT22;13487;39.360;22.962;2022-11-20T16:35:41;18.70;99.90
25622;DHT22;13487;39.360;22.962;2022-11-20T16:38:06;18.70;99.90
25622;DHT22;13487;39.360;22.962;2022-11-20T16:40:32;18.70;99.90
25622;DHT22;13487;39.360;22.962;2022-11-20T16:43:09;18.80;99.90
25622;DHT22;13487;39.360;22.962;2022-11-20T16:45:41;19.00;99.90
25622;DHT22;13487;39.360;22.962;2022-11-20T16:48:11;19.70;99.90
25622;DHT22;13487;39.360;22.962;2022-11-20T16:50:48;20.20;99.90
25622;DHT22;13487;39.360;22.962;2022-11-20T16:53:15;20.30;99.90
25622;DHT22;13487;39.360;22.962;2022-11-20T16:55:41;20.40;99.90
25622;DHT22;13487;39.360;22.962;2022-11-20T16:58:06;20.50;99.90
25622;DHT22;13487;39.360;22.962;2022-11-20T17:00:36;20.70;99.90
25622;DHT22;13487;39.360;22.962;2022-11-20T17:03:03;20.80;99.90
25622;DHT22;13487;39.360;22.962;2022-11-20T17:05:29;20.90;99.90
25622;DHT22;13487;39.360;22.962;2022-11-20T17:07:55;20.90;99.90
25622;DHT22;13487;39.360;22.962;2022-11-20T17:10:21;21.10;99.90
25622;DHT22;13487;39.360;22.962;2022-11-20T17:12:47;21.20;99.90
25622;DHT22;13487;39.360;22.962;2022-11-20T17:15:12;21.20;99.90
25622;DHT22;13487;39.360;22.962;2022-11-20T17:17:38;21.40;99.90
25622;DHT22;13487;39.360;22.962;2022-11-20T17:20:04;21.40;99.90
25622;DHT22;13487;39.360;22.962;2022-11-20T17:22:31;21.40;99.90